Time;durP1;ratioP1;P1;durP2;ratioP2;P2;SDS_P1;SDS_P2;PMS_P1;PMS_P2;Temp;Humidity;BMP_temperature;BMP_pressure;BME280_temperature;BME280_humidity;BME280_pressure;Samples;Min_cycle;Max_cycle;Signal;HPM_P1;HPM_P2
2023/09/19 00:00:15;;;;;;;6.78;1.98;;;17.80;96.90;;;;;;5014828;28;20037;-79
2023/09/19 00:02:40;;;;;;;7.70;2.88;;;17.70;96.80;;;;;;5014446;28;20042;-78
2023/09/19 00:05:08;;;;;;;4.72;1.00;;;17.70;97.20;;;;;;5014421;28;20030;-77
2023/09/19 00:07:36;;;;;;;6.25;1.15;;;17.70;97.00;;;;;;5014237;28;20049;-75
2023/09/19 00:10:02;;;;;;;6.43;1.58;;;17.70;96.90;;;;;;4996424;28;20376;-72
2023/09/19 00:12:28;;;;;;;7.13;1.55;;;17.70;96.90;;;;;;5014331;28;20140;-74
2023/09/19 00:14:53;;;;;;;3.75;0.85;;;17.70;97.10;;;;;;4996974;28;20057;-75
2023/09/19 00:17:19;;;;;;;3.88;0.95;;;17.70;97.00;;;;;;5014339;28;20111;-75
2023/09/19 00:19:46;;;;;;;3.80;1.20;;;17.70;97.20;;;;;;4996357;28;20022;-75
2023/09/19 00:22:13;;;;;;;6.55;0.80;;;17.60;97.20;;;;;;4996117;28;20194;-73
2023/09/19 00:24:38;;;;;;;6.65;1.25;;;17.60;97.30;;;;;;5013464;28;20026;-75
2023/09/19 00:27:05;;;;;;;5.30;0.98;;;17.60;97.40;;;;;;5013882;28;20032;-75
2023/09/19 00:29:32;;;;;;;4.22;0.98;;;17.60;97.50;;;;;;5014013;28;20165;-75
2023/09/19 00:31:59;;;;;;;6.20;0.95;;;17.70;97.50;;;;;;5014094;28;20037;-75
2023/09/19 00:34:24;;;;;;;5.03;0.88;;;17.70;97.60;;;;;;5014205;28;20104;-75
2023/09/19 00:36:53;;;;;;;8.90;1.60;;;17.70;97.70;;;;;;4996198;28;20471;-76
2023/09/19 00:39:20;;;;;;;6.82;1.13;;;17.80;98.10;;;;;;5014208;28;20362;-76
2023/09/19 00:41:45;;;;;;;8.68;1.77;;;17.80;98.10;;;;;;4996467;28;20033;-75
2023/09/19 00:44:11;;;;;;;7.80;1.30;;;17.80;98.10;;;;;;5013744;28;20038;-76
2023/09/19 00:46:37;;;;;;;11.93;2.30;;;17.80;98.40;;;;;;5013556;28;20490;-76
2023/09/19 00:49:03;;;;;;;7.13;1.40;;;17.80;98.70;;;;;;5013782;28;20034;-76
2023/09/19 00:51:29;;;;;;;12.05;1.70;;;17.80;98.90;;;;;;5014033;28;20029;-76
2023/09/19 00:53:55;;;;;;;8.02;1.38;;;17.80;98.90;;;;;;5013777;28;20039;-76
2023/09/19 00:56:21;;;;;;;6.97;1.30;;;17.80;98.90;;;;;;4996438;28;20095;-77
2023/09/19 00:58:47;;;;;;;7.45;1.48;;;17.70;98.80;;;;;;5013602;28;20496;-77
2023/09/19 01:01:14;;;;;;;8.40;1.35;;;17.70;98.90;;;;;;4980131;28;20068;-77
2023/09/19 01:03:41;;;;;;;11.30;1.42;;;17.60;99.00;;;;;;5013629;28;20506;-77
2023/09/19 01:06:08;;;;;;;6.25;1.20;;;17.60;99.20;;;;;;5013242;28;20066;-76
2023/09/19 01:08:35;;;;;;;6.65;0.93;;;17.50;99.30;;;;;;5013411;28;20121;-76
2023/09/19 01:11:08;;;;;;;9.73;1.55;;;17.60;99.40;;;;;;4996232;28;20037;-77
2023/09/19 01:13:57;;;;;;;7.15;1.35;;;17.60;99.40;;;;;;4995828;28;20085;-76
2023/09/19 01:16:51;;;;;;;7.40;1.48;;;17.60;99.40;;;;;;5013523;28;20311;-76
2023/09/19 01:19:40;;;;;;;8.68;1.75;;;17.60;99.40;;;;;;4999028;28;20058;-76
2023/09/19 01:22:20;;;;;;;7.05;1.83;;;17.50;99.40;;;;;;5013208;28;20026;-77
2023/09/19 01:25:29;;;;;;;11.35;1.55;;;17.50;99.60;;;;;;5013711;28;20026;-76
2023/09/19 01:28:01;;;;;;;8.02;1.58;;;17.50;99.70;;;;;;4996079;28;20337;-76
2023/09/19 01:30:32;;;;;;;11.07;1.70;;;17.40;99.80;;;;;;5013256;28;20033;-76
2023/09/19 01:32:59;;;;;;;10.70;1.70;;;17.50;99.90;;;;;;5013434;28;20032;-76
2023/09/19 01:35:25;;;;;;;9.23;1.60;;;17.50;99.80;;;;;;5013756;28;20029;-75
2023/09/19 01:37:53;;;;;;;16.55;2.35;;;17.50;99.90;;;;;;5013261;28;20053;-75
2023/09/19 01:40:21;;;;;;;12.30;2.10;;;17.50;99.60;;;;;;4995585;28;20062;-75
2023/09/19 01:43:06;;;;;;;6.70;1.48;;;17.50;99.40;;;;;;5013256;28;20116;-75
2023/09/19 01:45:50;;;;;;;8.27;1.60;;;17.50;99.50;;;;;;5012750;28;20038;-75
2023/09/19 01:48:31;;;;;;;12.73;2.00;;;17.40;99.50;;;;;;5011627;28;20065;-76
2023/09/19 01:51:03;;;;;;;12.43;1.75;;;17.40;99.50;;;;;;5013077;28;20030;-76
2023/09/19 01:54:06;;;;;;;12.18;1.88;;;17.30;99.50;;;;;;4995981;28;20038;-76
2023/09/19 01:56:42;;;;;;;10.70;1.80;;;17.30;99.40;;;;;;5013295;28;20026;-76
2023/09/19 01:59:13;;;;;;;14.10;2.55;;;17.20;99.30;;;;;;5012870;28;20030;-76
2023/09/19 02:01:40;;;;;;;16.63;3.17;;;17.20;99.20;;;;;;5012986;28;20034;-76
2023/09/19 02:04:07;;;;;;;9.52;2.20;;;17.10;98.80;;;;;;4995488;28;20131;-76
2023/09/19 02:06:34;;;;;;;10.32;2.00;;;17.10;98.90;;;;;;5012812;28;20069;-76
2023/09/19 02:08:59;;;;;;;11.52;2.22;;;17.00;98.70;;;;;;5013159;28;20040;-76
2023/09/19 02:11:25;;;;;;;14.77;2.13;;;17.10;99.10;;;;;;5012826;28;20109;-76
2023/09/19 02:13:54;;;;;;;10.27;1.65;;;17.00;98.90;;;;;;5012939;28;20095;-76
2023/09/19 02:16:20;;;;;;;10.65;1.80;;;17.00;98.70;;;;;;5013157;28;20022;-75
2023/09/19 02:18:51;;;;;;;8.35;1.77;;;17.00;98.60;;;;;;4995368;28;20030;-76
2023/09/19 02:21:17;;;;;;;17.02;1.67;;;17.00;98.70;;;;;;4995735;28;20030;-75
2023/09/19 02:23:44;;;;;;;12.50;1.77;;;16.90;98.50;;;;;;5013007;28;20128;-75
2023/09/19 02:26:11;;;;;;;14.60;2.13;;;16.90;98.30;;;;;;5012668;28;20038;-75
2023/09/19 02:28:37;;;;;;;7.85;1.45;;;16.90;98.20;;;;;;4995500;28;20034;-74
2023/09/19 02:31:05;;;;;;;9.13;1.73;;;16.90;98.20;;;;;;5012824;28;20459;-74
2023/09/19 02:33:32;;;;;;;13.20;2.03;;;16.90;98.00;;;;;;5012491;28;20502;-74
2023/09/19 02:35:58;;;;;;;10.68;1.90;;;16.90;97.90;;;;;;5012263;28;20031;-74
2023/09/19 02:38:25;;;;;;;11.98;1.88;;;16.90;97.80;;;;;;5012179;28;20478;-74
2023/09/19 02:40:55;;;;;;;13.88;1.77;;;16.90;97.70;;;;;;5012407;28;20084;-74
2023/09/19 02:43:21;;;;;;;10.93;1.65;;;16.90;97.60;;;;;;4995163;28;20483;-74
2023/09/19 02:45:53;;;;;;;11.32;2.50;;;16.80;97.50;;;;;;5012804;28;20048;-74
2023/09/19 02:48:18;;;;;;;10.60;1.73;;;16.80;97.50;;;;;;5016024;28;20033;-74
2023/09/19 02:50:44;;;;;;;8.00;1.55;;;16.80;97.50;;;;;;5016457;28;20030;-74
2023/09/19 02:53:12;;;;;;;8.57;1.48;;;16.80;97.50;;;;;;5016180;28;20113;-74
2023/09/19 02:55:40;;;;;;;11.93;1.75;;;16.70;97.50;;;;;;4998459;28;20045;-74
2023/09/19 02:58:07;;;;;;;10.93;1.70;;;16.70;97.40;;;;;;5016543;28;20042;-74
2023/09/19 03:00:35;;;;;;;11.68;1.60;;;16.70;97.60;;;;;;5015962;28;20138;-74
2023/09/19 03:03:02;;;;;;;10.98;1.77;;;16.70;97.20;;;;;;5015618;28;20041;-74
2023/09/19 03:05:30;;;;;;;9.98;1.73;;;16.60;96.90;;;;;;5016001;28;20030;-74
2023/09/19 03:07:56;;;;;;;10.40;1.80;;;16.60;96.80;;;;;;5015649;28;20487;-74
2023/09/19 03:10:23;;;;;;;10.50;1.65;;;16.60;97.00;;;;;;5015980;28;20057;-74
2023/09/19 03:12:49;;;;;;;8.52;1.98;;;16.60;96.90;;;;;;5015655;28;20542;-75
2023/09/19 03:15:15;;;;;;;9.48;1.50;;;16.50;97.30;;;;;;5016213;28;20113;-74
2023/09/19 03:17:45;;;;;;;8.10;1.65;;;16.60;97.30;;;;;;4998047;28;20069;-74
2023/09/19 03:20:12;;;;;;;10.65;2.53;;;16.60;97.20;;;;;;4998126;28;20036;-74
2023/09/19 03:22:39;;;;;;;11.43;2.47;;;16.60;97.40;;;;;;4998044;28;20129;-74
2023/09/19 03:25:07;;;;;;;11.93;1.70;;;16.60;97.00;;;;;;5015558;28;20036;-75
2023/09/19 03:27:37;;;;;;;9.73;1.65;;;16.50;96.80;;;;;;5015700;28;20113;-76
2023/09/19 03:30:08;;;;;;;9.05;1.67;;;16.50;96.80;;;;;;5015767;28;20084;-74
2023/09/19 03:32:37;;;;;;;11.93;1.50;;;16.40;96.40;;;;;;5015883;28;20430;-74
2023/09/19 03:35:06;;;;;;;12.88;2.30;;;16.40;96.40;;;;;;5015286;28;20426;-75
2023/09/19 03:37:35;;;;;;;10.32;1.17;;;16.40;96.20;;;;;;4981748;28;20030;-75
2023/09/19 03:40:04;;;;;;;9.27;1.27;;;16.40;96.10;;;;;;5015355;28;20026;-75
2023/09/19 03:42:31;;;;;;;11.05;1.88;;;16.30;96.00;;;;;;5015225;28;20042;-74
2023/09/19 03:44:57;;;;;;;5.57;1.27;;;16.30;96.10;;;;;;5015296;28;20039;-74
2023/09/19 03:47:23;;;;;;;11.65;1.67;;;16.20;95.80;;;;;;4997776;28;20033;-74
2023/09/19 03:49:48;;;;;;;9.77;1.58;;;16.20;95.90;;;;;;5027960;28;20037;-74
2023/09/19 03:52:15;;;;;;;9.90;1.58;;;16.20;95.80;;;;;;5030595;28;20026;-74
2023/09/19 03:54:41;;;;;;;9.38;1.60;;;16.20;95.80;;;;;;5016360;28;20034;-75
2023/09/19 03:57:07;;;;;;;11.35;1.60;;;16.20;95.80;;;;;;5029559;28;20084;-75
2023/09/19 03:59:33;;;;;;;8.20;1.83;;;16.20;95.60;;;;;;4997816;28;20121;-74
2023/09/19 04:01:59;;;;;;;15.85;1.90;;;16.20;95.60;;;;;;4998984;28;20069;-74
2023/09/19 04:04:25;;;;;;;10.50;1.85;;;16.20;95.50;;;;;;5015608;28;20048;-74
2023/09/19 04:06:53;;;;;;;9.38;1.75;;;16.20;95.50;;;;;;4977735;28;20050;-74
2023/09/19 04:09:19;;;;;;;10.45;1.40;;;16.30;95.70;;;;;;4994501;28;20026;-74
2023/09/19 04:11:45;;;;;;;8.88;1.48;;;16.30;95.70;;;;;;4994473;28;20116;-74
2023/09/19 04:14:10;;;;;;;14.25;1.92;;;16.30;95.50;;;;;;4993891;28;20031;-74
2023/09/19 04:16:36;;;;;;;11.80;1.77;;;16.30;95.20;;;;;;4994092;28;20073;-76
2023/09/19 04:19:03;;;;;;;7.30;1.63;;;16.30;95.00;;;;;;4993719;28;20434;-74
2023/09/19 04:21:29;;;;;;;12.05;1.60;;;16.30;95.00;;;;;;4995082;28;20027;-73
2023/09/19 04:23:54;;;;;;;13.88;1.48;;;16.20;95.00;;;;;;4994004;28;20432;-74
2023/09/19 04:26:21;;;;;;;8.07;1.25;;;16.10;95.00;;;;;;4994885;28;20030;-74
2023/09/19 04:28:47;;;;;;;10.60;1.38;;;16.10;94.90;;;;;;4993639;28;20045;-75
2023/09/19 04:31:13;;;;;;;12.35;1.73;;;16.10;94.90;;;;;;4994722;28;20113;-74
2023/09/19 04:33:39;;;;;;;8.43;1.50;;;16.10;94.80;;;;;;4994798;28;20030;-74
2023/09/19 04:36:07;;;;;;;10.57;1.77;;;16.10;94.80;;;;;;4993238;28;20109;-74
2023/09/19 04:38:33;;;;;;;6.82;1.23;;;16.00;95.00;;;;;;4993499;28;20120;-73
2023/09/19 04:40:59;;;;;;;7.10;1.17;;;16.00;95.10;;;;;;4994623;28;20475;-75
2023/09/19 04:43:25;;;;;;;7.80;1.70;;;16.00;95.10;;;;;;4994873;28;20042;-75
2023/09/19 04:45:55;;;;;;;9.10;1.60;;;16.00;95.10;;;;;;4994504;28;20068;-75
2023/09/19 04:48:26;;;;;;;9.38;1.45;;;16.00;95.20;;;;;;4994797;28;20141;-75
2023/09/19 04:50:52;;;;;;;7.25;1.63;;;16.00;95.10;;;;;;4994816;28;20085;-76
2023/09/19 04:53:21;;;;;;;9.73;1.63;;;16.00;95.10;;;;;;4994446;28;20435;-77
2023/09/19 04:55:55;;;;;;;7.28;1.60;;;16.00;95.00;;;;;;4994425;28;20373;-75
2023/09/19 04:58:22;;;;;;;10.25;1.65;;;16.00;95.10;;;;;;4994356;28;20035;-76
2023/09/19 05:00:48;;;;;;;9.55;1.50;;;16.00;95.30;;;;;;4992931;28;20046;-75
2023/09/19 05:03:13;;;;;;;10.77;1.50;;;16.00;95.20;;;;;;4993179;28;20353;-75
2023/09/19 05:05:42;;;;;;;11.18;1.40;;;16.00;95.20;;;;;;4993754;28;20038;-75
2023/09/19 05:08:09;;;;;;;7.00;1.10;;;16.00;95.20;;;;;;5012859;28;20054;-75
2023/09/19 05:10:37;;;;;;;9.00;1.60;;;16.00;95.30;;;;;;5013241;28;20041;-75
2023/09/19 05:13:04;;;;;;;8.20;1.27;;;16.00;95.20;;;;;;5013413;28;20056;-77
2023/09/19 05:15:31;;;;;;;9.93;1.45;;;16.00;95.10;;;;;;4996103;28;20033;-77
2023/09/19 05:17:56;;;;;;;9.10;1.95;;;15.90;95.20;;;;;;5013534;28;20121;-75
2023/09/19 05:20:30;;;;;;;9.90;1.20;;;15.90;95.30;;;;;;4996059;28;20131;-75
2023/09/19 05:23:05;;;;;;;9.27;1.30;;;15.90;95.40;;;;;;5013267;28;20026;-76
2023/09/19 05:25:38;;;;;;;9.68;1.42;;;15.90;95.40;;;;;;5012058;28;20030;-76
2023/09/19 05:28:05;;;;;;;11.25;1.45;;;15.80;95.40;;;;;;5013965;28;20034;-75
2023/09/19 05:30:38;;;;;;;11.18;1.67;;;15.80;95.40;;;;;;5013389;28;20399;-75
2023/09/19 05:33:04;;;;;;;;;;;15.80;95.60;;;;;;5013527;28;20041;-75
2023/09/19 05:35:30;;;;;;;7.88;1.27;;;15.80;95.60;;;;;;5012385;28;20346;-75
2023/09/19 05:37:57;;;;;;;14.95;1.88;;;15.90;95.80;;;;;;5012965;28;20022;-76
2023/09/19 05:40:24;;;;;;;8.50;1.88;;;15.90;95.80;;;;;;5013580;28;20335;-76
2023/09/19 05:42:50;;;;;;;16.13;2.33;;;15.80;95.80;;;;;;5013561;28;20096;-76
2023/09/19 05:45:22;;;;;;;10.40;1.98;;;15.90;96.10;;;;;;5013446;28;20038;-75
2023/09/19 05:47:52;;;;;;;11.00;1.30;;;15.90;96.10;;;;;;5013728;28;20164;-75
2023/09/19 05:50:18;;;;;;;9.02;1.60;;;15.90;96.00;;;;;;5013309;28;20030;-75
2023/09/19 05:52:52;;;;;;;7.88;1.27;;;15.80;96.20;;;;;;4979367;28;20034;-76
2023/09/19 05:55:18;;;;;;;14.52;1.60;;;15.80;96.20;;;;;;5013417;28;20026;-75
2023/09/19 05:57:48;;;;;;;11.73;1.45;;;15.90;96.20;;;;;;5012750;28;20081;-75
2023/09/19 06:00:14;;;;;;;14.77;2.17;;;15.90;96.20;;;;;;4995821;28;20375;-76
2023/09/19 06:02:40;;;;;;;13.23;1.58;;;15.90;96.30;;;;;;4995409;28;20037;-75
2023/09/19 06:05:09;;;;;;;11.60;1.52;;;15.90;96.20;;;;;;5013076;28;20385;-75
2023/09/19 06:07:37;;;;;;;8.25;1.30;;;15.90;96.30;;;;;;5012689;28;20056;-75
2023/09/19 06:10:07;;;;;;;8.38;1.45;;;15.80;96.20;;;;;;5013567;28;20112;-75
2023/09/19 06:12:34;;;;;;;9.07;1.88;;;15.80;96.50;;;;;;4995726;28;20037;-77
2023/09/19 06:15:00;;;;;;;13.40;2.15;;;15.90;96.50;;;;;;5013237;28;20105;-76
2023/09/19 06:17:28;;;;;;;8.23;1.17;;;15.90;96.50;;;;;;5012743;28;20126;-76
2023/09/19 06:19:55;;;;;;;12.13;1.90;;;15.90;96.60;;;;;;5012830;28;20034;-76
2023/09/19 06:22:21;;;;;;;11.18;1.63;;;15.90;96.70;;;;;;4998358;28;20034;-75
2023/09/19 06:24:47;;;;;;;10.68;1.77;;;15.90;96.70;;;;;;5017181;28;20354;-75
2023/09/19 06:27:13;;;;;;;10.35;1.70;;;15.90;96.80;;;;;;4999645;28;20122;-78
2023/09/19 06:29:39;;;;;;;12.23;1.50;;;15.90;96.90;;;;;;4999408;28;20112;-77
2023/09/19 06:32:11;;;;;;;9.38;1.98;;;16.00;97.00;;;;;;5016702;28;20061;-77
2023/09/19 06:34:43;;;;;;;12.75;2.25;;;16.00;97.10;;;;;;5016573;28;20049;-78
2023/09/19 06:37:09;;;;;;;9.43;1.40;;;16.00;97.10;;;;;;5000449;28;20038;-79
2023/09/19 06:39:34;;;;;;;10.75;1.77;;;16.10;97.30;;;;;;5016621;28;20044;-79
2023/09/19 06:42:01;;;;;;;13.25;1.85;;;16.20;97.20;;;;;;4999211;28;20463;-79
2023/09/19 06:44:29;;;;;;;8.45;1.38;;;16.30;97.00;;;;;;4999680;28;20057;-77
2023/09/19 06:46:55;;;;;;;12.48;1.70;;;16.30;97.10;;;;;;5016110;28;20054;-78
2023/09/19 06:49:20;;;;;;;11.32;1.65;;;16.40;97.20;;;;;;5017242;28;20032;-78
2023/09/19 06:51:46;;;;;;;11.90;1.95;;;16.40;97.00;;;;;;4998744;28;20033;-78
2023/09/19 06:54:12;;;;;;;8.30;1.40;;;16.40;97.00;;;;;;4998879;28;20414;-78
2023/09/19 06:56:37;;;;;;;10.57;1.35;;;16.50;97.10;;;;;;5016533;28;20038;-78
2023/09/19 06:59:05;;;;;;;6.85;1.15;;;16.50;97.00;;;;;;5016197;28;20048;-78
2023/09/19 07:01:32;;;;;;;16.98;1.98;;;16.50;97.10;;;;;;5016077;28;20128;-78
2023/09/19 07:03:57;;;;;;;16.85;2.40;;;16.50;97.10;;;;;;5016156;28;20092;-78
2023/09/19 07:06:24;;;;;;;11.68;2.13;;;16.60;97.20;;;;;;5016500;28;20050;-79
2023/09/19 07:08:50;;;;;;;12.13;1.85;;;16.70;97.20;;;;;;4999336;28;20030;-79
2023/09/19 07:11:16;;;;;;;10.50;1.95;;;16.70;97.10;;;;;;4983712;28;20030;-78
2023/09/19 07:13:41;;;;;;;8.45;1.58;;;16.80;97.00;;;;;;5015811;28;20061;-78
2023/09/19 07:16:10;;;;;;;17.33;2.50;;;16.70;96.80;;;;;;4998719;28;20463;-79
2023/09/19 07:18:36;;;;;;;15.38;2.25;;;16.80;96.90;;;;;;4999174;28;20026;-79
2023/09/19 07:21:04;;;;;;;13.80;1.92;;;16.80;97.00;;;;;;4998334;28;20026;-78
2023/09/19 07:23:34;;;;;;;14.07;1.70;;;16.80;97.00;;;;;;5016258;28;20034;-80
2023/09/19 07:26:01;;;;;;;10.30;1.30;;;16.80;96.80;;;;;;5016835;28;20422;-78
2023/09/19 07:28:28;;;;;;;13.30;1.63;;;16.90;96.90;;;;;;5016120;28;20475;-78
2023/09/19 07:30:54;;;;;;;16.27;2.30;;;16.90;96.90;;;;;;5016218;28;20030;-78
2023/09/19 07:33:19;;;;;;;12.50;2.10;;;16.90;96.80;;;;;;5015505;28;20095;-78
2023/09/19 07:35:47;;;;;;;10.73;1.75;;;16.90;96.70;;;;;;4997733;28;20048;-78
2023/09/19 07:38:12;;;;;;;12.48;1.50;;;16.90;96.80;;;;;;5015317;28;20033;-78
2023/09/19 07:40:38;;;;;;;11.55;1.80;;;16.90;96.80;;;;;;5014927;28;20498;-77
2023/09/19 07:43:04;;;;;;;12.30;1.83;;;17.00;96.70;;;;;;5015159;28;20048;-77
2023/09/19 07:45:31;;;;;;;12.73;2.25;;;17.00;96.80;;;;;;4997394;28;20030;-77
2023/09/19 07:47:57;;;;;;;7.00;1.45;;;17.10;97.00;;;;;;5015424;28;20360;-78
2023/09/19 07:50:23;;;;;;;12.40;2.03;;;17.10;97.00;;;;;;5015155;28;20062;-78
2023/09/19 07:52:53;;;;;;;8.77;1.40;;;17.20;96.80;;;;;;5015226;28;20108;-78
2023/09/19 07:55:23;;;;;;;8.98;1.60;;;17.20;96.60;;;;;;4997409;28;20036;-78
2023/09/19 07:57:49;;;;;;;8.82;1.52;;;17.30;96.70;;;;;;5015031;28;20053;-79
2023/09/19 08:00:15;;;;;;;12.27;2.00;;;17.30;96.50;;;;;;4997123;28;20041;-77
2023/09/19 08:02:42;;;;;;;14.20;1.90;;;17.40;96.30;;;;;;5015231;28;20030;-78
2023/09/19 08:05:15;;;;;;;10.05;2.38;;;17.40;96.30;;;;;;5014973;28;20348;-78
2023/09/19 08:07:45;;;;;;;12.43;1.73;;;17.40;96.30;;;;;;5014711;28;20486;-77
2023/09/19 08:10:15;;;;;;;12.68;2.28;;;17.50;96.30;;;;;;5015448;28;20042;-78
2023/09/19 08:12:46;;;;;;;11.20;1.50;;;17.50;96.50;;;;;;4998547;28;20042;-77
2023/09/19 08:15:13;;;;;;;12.52;1.63;;;17.60;96.50;;;;;;4998001;28;20030;-78
2023/09/19 08:17:39;;;;;;;13.80;2.08;;;17.60;96.10;;;;;;5014767;28;20069;-78
2023/09/19 08:20:05;;;;;;;13.07;1.95;;;17.70;96.20;;;;;;4981452;28;20061;-77
2023/09/19 08:22:34;;;;;;;14.43;2.30;;;17.60;95.50;;;;;;5014545;28;20545;-77
2023/09/19 08:25:04;;;;;;;8.80;1.98;;;17.60;95.80;;;;;;4998666;28;20026;-76
2023/09/19 08:27:30;;;;;;;13.85;2.08;;;17.50;96.10;;;;;;4998000;28;20116;-77
2023/09/19 08:29:56;;;;;;;12.98;2.03;;;17.60;96.20;;;;;;5014944;28;20029;-77
2023/09/19 08:32:24;;;;;;;14.48;2.15;;;17.70;95.90;;;;;;4981311;28;20420;-78
2023/09/19 08:34:50;;;;;;;15.85;2.65;;;17.70;95.80;;;;;;5015110;28;20034;-78
2023/09/19 08:37:17;;;;;;;12.77;2.03;;;17.60;96.00;;;;;;5014475;28;20369;-75
2023/09/19 08:39:43;;;;;;;10.45;1.70;;;17.70;96.30;;;;;;5014578;28;20371;-76
2023/09/19 08:42:11;;;;;;;14.88;2.88;;;17.80;96.60;;;;;;5014314;28;20112;-77
2023/09/19 08:44:40;;;;;;;14.90;2.78;;;17.80;96.20;;;;;;5013396;28;20345;-76
2023/09/19 08:47:13;;;;;;;14.02;1.98;;;17.80;96.40;;;;;;5014467;28;20351;-77
2023/09/19 08:49:45;;;;;;;11.75;2.05;;;17.90;96.30;;;;;;5013050;28;20045;-77
2023/09/19 08:52:23;;;;;;;12.80;1.85;;;18.00;95.80;;;;;;5014325;28;20034;-76
2023/09/19 08:54:53;;;;;;;16.30;2.70;;;18.10;95.80;;;;;;5014089;28;20029;-76
2023/09/19 08:57:22;;;;;;;13.48;2.03;;;18.10;95.70;;;;;;5013726;28;20109;-77
2023/09/19 08:59:51;;;;;;;11.30;1.48;;;18.10;95.80;;;;;;5013947;28;20026;-78
2023/09/19 09:02:21;;;;;;;14.60;2.10;;;18.10;95.90;;;;;;5013847;28;20026;-78
2023/09/19 09:04:48;;;;;;;14.32;2.30;;;18.20;95.90;;;;;;5013804;28;20120;-78
2023/09/19 09:07:15;;;;;;;14.50;1.73;;;18.20;95.60;;;;;;5012477;28;20050;-77
2023/09/19 09:09:42;;;;;;;14.30;2.28;;;18.30;95.60;;;;;;4980073;28;20053;-78
2023/09/19 09:12:13;;;;;;;13.25;2.17;;;18.40;95.70;;;;;;5013800;28;20030;-77
2023/09/19 09:14:49;;;;;;;18.30;2.28;;;18.50;95.50;;;;;;5012322;28;20030;-78
2023/09/19 09:17:21;;;;;;;11.30;1.98;;;18.60;95.10;;;;;;4997016;28;20534;-78
2023/09/19 09:19:47;;;;;;;15.45;1.90;;;18.60;95.20;;;;;;5012872;28;20362;-78
2023/09/19 09:22:13;;;;;;;13.05;1.75;;;18.70;94.60;;;;;;5013669;28;20032;-79
2023/09/19 09:24:53;;;;;;;19.67;2.70;;;18.70;94.60;;;;;;4995615;28;20042;-79
2023/09/19 09:27:20;;;;;;;10.50;1.63;;;18.80;94.80;;;;;;5014076;28;20084;-78
2023/09/19 09:29:50;;;;;;;11.50;1.80;;;18.90;94.10;;;;;;4995869;28;20044;-80
2023/09/19 09:32:26;;;;;;;11.02;2.03;;;18.90;93.60;;;;;;5014019;28;20034;-79
2023/09/19 09:34:53;;;;;;;9.50;1.85;;;18.90;93.70;;;;;;4995507;28;20034;-76
2023/09/19 09:37:20;;;;;;;18.83;2.08;;;18.90;94.20;;;;;;5013516;28;20041;-78
2023/09/19 09:39:58;;;;;;;6.15;1.40;;;18.80;93.60;;;;;;5013264;28;20376;-78
2023/09/19 09:42:35;;;;;;;9.93;1.65;;;18.90;93.80;;;;;;5011839;28;20038;-78
2023/09/19 09:48:14;;;;;;;10.02;1.77;;;18.90;93.70;;;;;;5012989;28;20415;-78
2023/09/19 09:50:56;;;;;;;9.38;1.83;;;19.00;92.60;;;;;;5012895;28;20034;-78
2023/09/19 09:53:27;;;;;;;15.57;2.15;;;19.00;92.40;;;;;;4995348;28;20505;-79
2023/09/19 09:56:07;;;;;;;13.43;2.03;;;18.90;92.10;;;;;;5017482;28;20045;-78
2023/09/19 09:58:35;;;;;;;9.27;1.65;;;19.00;92.20;;;;;;5001955;28;20030;-79
2023/09/19 10:01:14;;;;;;;12.23;2.45;;;19.10;92.40;;;;;;5001790;28;20025;-78
2023/09/19 10:03:43;;;;;;;12.63;2.00;;;19.10;92.30;;;;;;5019615;28;20045;-79
2023/09/19 10:09:10;;;;;;;7.00;1.50;;;19.20;92.30;;;;;;5003715;28;20188;-78
2023/09/19 10:11:45;;;;;;;8.77;1.40;;;19.40;92.20;;;;;;5019624;28;20419;-80
2023/09/19 10:14:19;;;;;;;16.77;2.33;;;19.40;92.20;;;;;;5019233;28;20032;-79
2023/09/19 10:16:49;;;;;;;9.43;1.73;;;19.60;92.20;;;;;;5020520;28;20034;-79
2023/09/19 10:19:25;;;;;;;13.57;1.98;;;19.60;91.80;;;;;;5019642;28;20030;-78
2023/09/19 10:21:56;;;;;;;10.15;2.25;;;19.80;92.00;;;;;;5019716;28;20050;-78
2023/09/19 10:24:24;;;;;;;9.82;1.73;;;19.80;91.80;;;;;;5019905;28;20386;-78
2023/09/19 10:26:51;;;;;;;9.50;1.70;;;19.80;91.20;;;;;;5002140;28;20040;-78
2023/09/19 10:29:18;;;;;;;10.45;1.90;;;19.80;91.60;;;;;;5019941;28;20113;-78
2023/09/19 10:31:47;;;;;;;13.25;2.63;;;19.80;91.60;;;;;;5001899;28;20037;-79
2023/09/19 10:34:15;;;;;;;9.60;1.80;;;19.90;91.30;;;;;;5019517;28;20544;-77
2023/09/19 10:36:45;;;;;;;10.82;2.03;;;19.90;91.60;;;;;;5002077;28;20053;-76
2023/09/19 10:39:13;;;;;;;15.13;2.88;;;19.90;91.30;;;;;;5019602;28;20127;-77
2023/09/19 10:41:39;;;;;;;12.93;2.70;;;19.80;91.10;;;;;;5019463;28;20054;-78
2023/09/19 10:44:05;;;;;;;9.65;1.70;;;19.80;91.20;;;;;;5002540;28;20053;-77
2023/09/19 10:46:34;;;;;;;9.90;1.50;;;19.70;91.60;;;;;;5022553;28;20076;-77
2023/09/19 10:49:02;;;;;;;13.10;2.33;;;19.70;91.50;;;;;;5021542;28;20109;-78
2023/09/19 10:51:40;;;;;;;10.65;1.73;;;19.70;91.60;;;;;;5002447;28;20030;-78
2023/09/19 10:54:13;;;;;;;8.23;1.52;;;19.80;91.30;;;;;;5019883;28;20470;-78
2023/09/19 10:56:42;;;;;;;;;;;19.80;91.20;;;;;;5020547;28;20026;-79
2023/09/19 10:59:15;;;;;;;9.77;1.67;;;19.80;91.90;;;;;;5019791;28;20443;-78
2023/09/19 11:01:58;;;;;;;7.47;1.45;;;19.70;91.40;;;;;;5019416;28;20084;-78
2023/09/19 11:04:26;;;;;;;11.07;1.38;;;19.70;91.60;;;;;;5019679;28;20044;-77
2023/09/19 11:07:08;;;;;;;10.02;1.70;;;19.70;92.00;;;;;;4999419;28;20064;-78
2023/09/19 11:09:57;;;;;;;12.40;1.60;;;19.70;92.00;;;;;;5016470;28;20048;-78
2023/09/19 11:12:29;;;;;;;13.43;1.52;;;19.70;92.40;;;;;;5016444;28;20139;-79
2023/09/19 11:14:55;;;;;;;14.93;1.27;;;19.70;92.00;;;;;;5016129;28;20030;-79
2023/09/19 11:17:21;;;;;;;9.10;1.50;;;19.60;92.00;;;;;;5016029;28;20041;-78
2023/09/19 11:22:53;;;;;;;12.15;1.67;;;19.70;92.20;;;;;;5015378;28;20041;-77
2023/09/19 11:25:29;;;;;;;9.93;1.83;;;19.70;91.80;;;;;;5015542;28;20463;-78
2023/09/19 11:28:15;;;;;;;8.98;1.63;;;19.70;91.80;;;;;;5015671;28;20026;-78
2023/09/19 11:30:45;;;;;;;9.00;1.67;;;19.70;92.30;;;;;;5015807;28;20435;-78
2023/09/19 11:33:21;;;;;;;13.55;1.73;;;19.70;92.30;;;;;;4998343;28;20039;-78
2023/09/19 11:36:00;;;;;;;12.35;1.83;;;19.70;92.00;;;;;;5016038;28;20371;-81
2023/09/19 11:38:44;;;;;;;8.20;1.45;;;19.70;91.60;;;;;;4997891;28;20450;-79
2023/09/19 11:41:31;;;;;;;17.08;3.40;;;19.70;91.50;;;;;;4998531;28;20436;-78
2023/09/19 11:44:05;;;;;;;10.95;1.63;;;19.60;91.80;;;;;;5015577;28;20129;-78
2023/09/19 11:46:33;;;;;;;10.35;1.45;;;19.70;91.80;;;;;;4997240;28;20436;-78
2023/09/19 11:49:12;;;;;;;9.02;1.13;;;19.70;91.40;;;;;;5015092;28;20407;-79
2023/09/19 11:51:45;;;;;;;8.40;1.48;;;19.80;91.70;;;;;;5015168;28;20026;-77
2023/09/19 11:54:21;;;;;;;10.40;1.38;;;19.90;91.30;;;;;;5015052;28;20061;-78
2023/09/19 11:56:50;;;;;;;9.43;1.38;;;19.90;91.10;;;;;;5015053;28;20136;-78
2023/09/19 11:59:29;;;;;;;9.32;1.70;;;20.00;91.30;;;;;;5014666;28;20429;-78
2023/09/19 12:02:00;;;;;;;11.50;1.58;;;20.10;90.30;;;;;;4997213;28;20033;-78
2023/09/19 12:04:41;;;;;;;7.38;1.80;;;20.10;90.80;;;;;;5014696;28;20037;-76
2023/09/19 12:07:16;;;;;;;5.28;0.90;;;20.10;91.30;;;;;;5014896;28;20046;-78
2023/09/19 12:09:47;;;;;;;10.63;1.30;;;20.30;90.70;;;;;;5013892;28;20050;-78
2023/09/19 12:12:23;;;;;;;9.75;1.23;;;20.40;90.90;;;;;;5014802;28;20510;-78
2023/09/19 12:14:52;;;;;;;8.18;1.13;;;20.40;90.00;;;;;;4997633;28;20087;-77
2023/09/19 12:17:22;;;;;;;7.18;0.93;;;20.40;90.60;;;;;;5014289;28;20052;-78
2023/09/19 12:19:56;;;;;;;7.43;0.90;;;20.50;89.80;;;;;;5013421;28;20026;-78
2023/09/19 12:22:22;;;;;;;8.15;0.85;;;20.50;88.60;;;;;;5014271;28;20191;-78
2023/09/19 12:24:48;;;;;;;6.03;1.13;;;20.40;88.60;;;;;;4980370;28;20546;-78
2023/09/19 12:27:14;;;;;;;8.02;1.13;;;20.50;88.70;;;;;;5014617;28;20125;-76
2023/09/19 12:29:48;;;;;;;8.27;1.27;;;20.40;88.70;;;;;;5014272;28;20075;-78
2023/09/19 12:32:16;;;;;;;5.95;1.20;;;20.50;87.60;;;;;;5014294;28;20026;-79
2023/09/19 12:34:42;;;;;;;5.32;0.55;;;20.50;87.60;;;;;;5014742;28;20121;-77
2023/09/19 12:37:12;;;;;;;8.52;1.33;;;20.50;88.90;;;;;;4996890;28;20459;-79
2023/09/19 12:39:48;;;;;;;7.85;0.90;;;20.40;87.80;;;;;;5014587;28;20026;-78
2023/09/19 12:42:15;;;;;;;4.75;0.85;;;20.30;88.60;;;;;;5014668;28;20038;-79
2023/09/19 12:44:43;;;;;;;7.47;0.90;;;20.30;88.40;;;;;;5014260;28;20084;-78
2023/09/19 12:47:15;;;;;;;6.00;0.70;;;20.20;88.10;;;;;;5014245;28;20021;-78
2023/09/19 12:50:01;;;;;;;;;;;20.20;89.30;;;;;;5014618;28;20133;-78
2023/09/19 12:52:49;;;;;;;5.38;0.70;;;20.20;88.50;;;;;;5014086;28;19967;-78
2023/09/19 12:55:29;;;;;;;3.78;0.82;;;20.10;88.40;;;;;;5013908;28;20026;-78
2023/09/19 12:58:07;;;;;;;6.20;0.50;;;20.10;89.30;;;;;;5013811;28;20562;-78
2023/09/19 13:00:42;;;;;;;5.80;0.68;;;20.00;89.10;;;;;;5014329;28;20026;-78
2023/09/19 13:03:31;;;;;;;4.35;0.40;;;20.00;89.60;;;;;;5015065;28;20037;-78